Time,TemperatureF,DewpointF,PressureIn,WindDirection,WindDirectionDegrees,WindSpeedMPH,WindSpeedGustMPH,Humidity,HourlyPrecipIn,Conditions,Clouds,dailyrainin,SoftwareType,DateUTC
2013-03-10 00:00:00,27.4,25.4,30.29,NNW,332,0.5,1.0,92,0.00,n/a,n/a,-99.99,Henriksen +1-Wire,2013-03-10 05:00:00,
2013-03-10 00:02:00,27.1,25.1,30.29,NNW,336,0.9,1.3,92,0.00,n/a,n/a,-99.99,Henriksen +1-Wire,2013-03-10 05:02:00,
2013-03-10 00:08:00,25.6,23.6,-100.00,NNW,336,0.1,0.7,92,0.00,n/a,n/a,-99.99,Henriksen +1-Wire,2013-03-10 05:08:00,
2013-03-10 00:10:00,25.4,23.5,30.30,NNW,336,0.5,0.9,92,0.00,n/a,n/a,-99.99,Henriksen +1-Wire,2013-03-10 05:10:00,
2013-03-10 00:16:00,25.7,23.8,30.30,NNW,343,0.5,1.0,92,0.00,n/a,n/a,-99.99,Henriksen +1-Wire,2013-03-10 05:16:00,
2013-03-10 00:22:00,27.0,25.0,30.30,NNW,333,1.2,2.0,92,0.00,n/a,n/a,-99.99,Henriksen +1-Wire,2013-03-10 05:22:00,
2013-03-10 00:28:00,27.0,25.0,30.30,NNW,345,0.9,1.9,92,0.00,n/a,n/a,-99.99,Henriksen +1-Wire,2013-03-10 05:28:00,
2013-03-10 00:34:00,25.8,23.8,30.30,North,356,0.6,1.6,92,0.00,n/a,n/a,-99.99,Henriksen +1-Wire,2013-03-10 05:34:00,
2013-03-10 00:40:00,25.1,23.2,30.30,North,0,0.8,1.3,92,0.00,n/a,n/a,-99.99,Henriksen +1-Wire,2013-03-10 05:40:00,
2013-03-10 00:46:00,25.2,23.3,30.31,NNW,340,0.8,1.3,92,0.00,n/a,n/a,-99.99,Henriksen +1-Wire,2013-03-10 05:46:00,
2013-03-10 00:52:00,27.2,25.3,30.31,NNW,329,0.8,1.3,92,0.00,n/a,n/a,-99.99,Henriksen +1-Wire,2013-03-10 05:52:00,
2013-03-10 00:58:00,27.3,25.3,30.31,NNW,337,0.0,1.3,92,0.00,n/a,n/a,-99.99,Henriksen +1-Wire,2013-03-10 05:58:00,
2013-03-10 01:04:00,25.8,23.7,30.31,NNW,334,0.0,0.0,91,0.00,n/a,n/a,-99.99,Henriksen +1-Wire,2013-03-10 06:04:00,
2013-03-10 01:10:00,25.0,22.9,30.31,NNW,336,0.0,0.0,91,0.00,n/a,n/a,-99.99,Henriksen +1-Wire,2013-03-10 06:10:00,
2013-03-10 01:16:00,24.8,22.8,30.31,NNW,338,0.0,0.0,91,0.00,n/a,n/a,-99.99,Henriksen +1-Wire,2013-03-10 06:16:00,
2013-03-10 01:22:00,25.0,23.0,30.31,NW,316,0.7,1.0,92,0.00,n/a,n/a,-99.99,Henriksen +1-Wire,2013-03-10 06:22:00,
2013-03-10 01:28:00,25.1,23.1,30.31,NW,317,0.5,1.0,92,0.00,n/a,n/a,-99.99,Henriksen +1-Wire,2013-03-10 06:28:00,
2013-03-10 01:34:00,25.6,23.6,30.31,NW,326,0.5,1.6,92,0.00,n/a,n/a,-99.99,Henriksen +1-Wire,2013-03-10 06:34:00,
2013-03-10 01:40:00,24.9,23.0,30.31,NNW,335,0.0,1.6,92,0.00,n/a,n/a,-99.99,Henriksen +1-Wire,2013-03-10 06:40:00,
2013-03-10 01:46:00,24.9,23.0,30.31,North,354,0.0,1.0,92,0.00,n/a,n/a,-99.99,Henriksen +1-Wire,2013-03-10 06:46:00,
2013-03-10 01:52:00,25.5,23.5,30.31,North,6,0.0,1.0,92,0.00,n/a,n/a,-99.99,Henriksen +1-Wire,2013-03-10 06:52:00,
2013-03-10 01:58:00,25.3,23.4,30.31,North,8,0.0,0.0,92,0.00,n/a,n/a,-99.99,Henriksen +1-Wire,2013-03-10 06:58:00,
2013-03-10 03:04:00,24.0,22.1,30.31,North,3,0.0,0.0,92,0.00,n/a,n/a,-99.99,Henriksen +1-Wire,2013-03-10 07:04:00,
2013-03-10 03:10:00,23.4,21.5,30.31,North,2,0.0,0.0,92,0.00,n/a,n/a,-99.99,Henriksen +1-Wire,2013-03-10 07:10:00,
2013-03-10 03:16:00,23.5,21.6,30.31,NNE,13,0.0,0.0,92,0.00,n/a,n/a,-99.99,Henriksen +1-Wire,2013-03-10 07:16:00,
2013-03-10 03:22:00,24.2,22.3,30.30,North,6,0.1,1.0,92,0.00,n/a,n/a,-99.99,Henriksen +1-Wire,2013-03-10 07:22:00,
2013-03-10 03:28:00,23.4,21.5,30.31,North,356,0.3,1.0,92,0.00,n/a,n/a,-99.99,Henriksen +1-Wire,2013-03-10 07:28:00,
2013-03-10 03:34:00,24.0,22.1,30.30,NNW,343,0.1,1.0,92,0.00,n/a,n/a,-99.99,Henriksen +1-Wire,2013-03-10 07:34:00,
2013-03-10 03:40:00,23.6,21.7,30.31,North,353,0.0,1.0,92,0.00,n/a,n/a,-99.99,Henriksen +1-Wire,2013-03-10 07:40:00,
2013-03-10 03:46:00,23.2,21.4,30.31,North,2,0.0,0.3,92,0.00,n/a,n/a,-99.99,Henriksen +1-Wire,2013-03-10 07:46:00,
2013-03-10 03:52:00,23.0,21.1,30.31,NNW,331,0.0,0.3,92,0.00,n/a,n/a,-99.99,Henriksen +1-Wire,2013-03-10 07:52:00,
2013-03-10 03:58:00,22.9,21.1,30.31,NNW,335,0.0,0.0,92,0.00,n/a,n/a,-99.99,Henriksen +1-Wire,2013-03-10 07:58:00,
2013-03-10 04:04:00,23.4,21.6,30.31,NNW,345,0.0,0.0,92,0.00,n/a,n/a,-99.99,Henriksen +1-Wire,2013-03-10 08:04:00,
2013-03-10 04:10:00,23.3,21.4,30.31,North,357,0.5,1.3,92,0.00,n/a,n/a,-99.99,Henriksen +1-Wire,2013-03-10 08:10:00,
2013-03-10 04:16:00,23.2,21.3,30.31,North,10,0.3,1.3,92,0.00,n/a,n/a,-99.99,Henriksen +1-Wire,2013-03-10 08:16:00,
2013-03-10 04:22:00,23.1,21.2,30.31,North,6,0.6,1.0,92,0.00,n/a,n/a,-99.99,Henriksen +1-Wire,2013-03-10 08:22:00,
2013-03-10 04:28:00,23.0,21.1,30.31,North,1,0.4,1.0,92,0.00,n/a,n/a,-99.99,Henriksen +1-Wire,2013-03-10 08:28:00,
2013-03-10 04:34:00,22.9,21.1,30.31,North,3,0.2,0.9,92,0.00,n/a,n/a,-99.99,Henriksen +1-Wire,2013-03-10 08:34:00,
2013-03-10 04:40:00,23.6,21.7,30.31,North,1,0.4,1.0,92,0.00,n/a,n/a,-99.99,Henriksen +1-Wire,2013-03-10 08:40:00,
2013-03-10 04:46:00,23.4,21.7,30.31,North,2,0.8,1.6,92,0.00,n/a,n/a,-99.99,Henriksen +1-Wire,2013-03-10 08:46:00,
2013-03-10 04:52:00,23.2,21.4,30.31,North,6,0.7,1.3,92,0.00,n/a,n/a,-99.99,Henriksen +1-Wire,2013-03-10 08:52:00,
2013-03-10 04:58:00,23.4,21.6,30.31,North,1,0.5,1.3,92,0.00,n/a,n/a,-99.99,Henriksen +1-Wire,2013-03-10 08:58:00,
2013-03-10 05:04:00,23.0,21.2,30.31,North,3,0.4,1.0,92,0.00,n/a,n/a,-99.99,Henriksen +1-Wire,2013-03-10 09:04:00,
2013-03-10 05:10:00,23.0,21.2,30.31,North,1,0.0,1.0,92,0.00,n/a,n/a,-99.99,Henriksen +1-Wire,2013-03-10 09:10:00,
2013-03-10 05:16:00,23.8,22.0,30.31,North,2,0.0,0.6,92,0.00,n/a,n/a,-99.99,Henriksen +1-Wire,2013-03-10 09:16:00,
2013-03-10 05:22:00,23.7,21.9,30.31,North,6,0.4,1.0,92,0.00,n/a,n/a,-99.99,Henriksen +1-Wire,2013-03-10 09:22:00,
2013-03-10 05:28:00,23.5,21.7,30.31,North,5,0.0,1.0,92,0.00,n/a,n/a,-99.99,Henriksen +1-Wire,2013-03-10 09:28:00,
2013-03-10 05:34:00,23.9,21.9,30.31,NNE,24,0.0,0.0,92,0.00,n/a,n/a,-99.99,Henriksen +1-Wire,2013-03-10 09:34:00,
2013-03-10 05:40:00,22.2,20.3,30.31,NNE,17,0.0,0.0,92,0.00,n/a,n/a,-99.99,Henriksen +1-Wire,2013-03-10 09:40:00,
2013-03-10 05:46:00,21.4,19.5,30.31,North,2,0.0,0.0,92,0.00,n/a,n/a,-99.99,Henriksen +1-Wire,2013-03-10 09:46:00,
2013-03-10 05:52:00,21.5,19.6,30.31,NNE,30,0.0,0.0,92,0.00,n/a,n/a,-99.99,Henriksen +1-Wire,2013-03-10 09:52:00,
2013-03-10 05:58:00,21.3,19.3,30.31,NE,38,0.0,0.3,92,0.00,n/a,n/a,-99.99,Henriksen +1-Wire,2013-03-10 09:58:00,
2013-03-10 06:04:00,21.7,19.7,30.31,North,3,0.0,0.0,92,0.00,n/a,n/a,-99.99,Henriksen +1-Wire,2013-03-10 10:04:00,
2013-03-10 06:10:00,21.3,19.3,30.31,North,1,0.0,0.0,91,0.00,n/a,n/a,-99.99,Henriksen +1-Wire,2013-03-10 10:10:00,
2013-03-10 06:16:00,21.0,19.0,30.31,North,2,0.0,0.0,91,0.00,n/a,n/a,-99.99,Henriksen +1-Wire,2013-03-10 10:16:00,
2013-03-10 06:22:00,21.6,19.6,30.31,North,6,0.6,1.0,92,0.00,n/a,n/a,-99.99,Henriksen +1-Wire,2013-03-10 10:22:00,
2013-03-10 06:28:00,21.3,19.4,30.31,North,1,0.1,1.3,92,0.00,n/a,n/a,-99.99,Henriksen +1-Wire,2013-03-10 10:28:00,
2013-03-10 06:34:00,21.3,19.4,30.31,North,3,0.0,1.3,92,0.00,n/a,n/a,-99.99,Henriksen +1-Wire,2013-03-10 10:34:00,
2013-03-10 06:40:00,21.4,19.4,30.31,North,1,0.2,0.6,92,0.00,n/a,n/a,-99.99,Henriksen +1-Wire,2013-03-10 10:40:00,
2013-03-10 06:46:00,21.7,19.8,30.31,North,355,0.0,1.0,92,0.00,n/a,n/a,-99.99,Henriksen +1-Wire,2013-03-10 10:46:00,
2013-03-10 06:52:00,21.8,19.9,30.31,North,6,0.0,0.0,92,0.00,n/a,n/a,-99.99,Henriksen +1-Wire,2013-03-10 10:52:00,
2013-03-10 06:58:00,21.4,19.5,30.31,North,1,0.6,1.3,92,0.00,n/a,n/a,-99.99,Henriksen +1-Wire,2013-03-10 10:58:00,
2013-03-10 07:04:00,22.6,20.7,30.31,NNW,338,0.7,1.3,92,0.00,n/a,n/a,-99.99,Henriksen +1-Wire,2013-03-10 11:04:00,
2013-03-10 07:10:00,23.5,21.6,30.31,NNW,330,1.3,1.6,92,0.00,n/a,n/a,-99.99,Henriksen +1-Wire,2013-03-10 11:10:00,
2013-03-10 07:16:00,23.7,21.9,30.32,NNW,337,0.6,1.6,92,0.00,n/a,n/a,-99.99,Henriksen +1-Wire,2013-03-10 11:16:00,
2013-03-10 07:22:00,24.0,22.2,30.33,NW,318,1.0,1.6,92,0.00,n/a,n/a,-99.99,Henriksen +1-Wire,2013-03-10 11:22:00,
2013-03-10 07:28:00,23.1,21.3,30.33,NNW,327,1.0,1.6,92,0.00,n/a,n/a,-99.99,Henriksen +1-Wire,2013-03-10 11:28:00,
2013-03-10 07:34:00,23.1,21.2,30.33,NNW,348,0.5,1.6,92,0.00,n/a,n/a,-99.99,Henriksen +1-Wire,2013-03-10 11:34:00,
2013-03-10 07:40:00,22.9,21.0,30.33,North,350,0.5,1.3,92,0.00,n/a,n/a,-99.99,Henriksen +1-Wire,2013-03-10 11:40:00,
2013-03-10 07:46:00,23.3,21.5,30.34,NNW,337,0.6,1.3,92,0.00,n/a,n/a,-99.99,Henriksen +1-Wire,2013-03-10 11:46:00,
2013-03-10 07:52:00,24.7,22.9,30.34,NNW,338,0.6,1.0,92,0.00,n/a,n/a,-99.99,Henriksen +1-Wire,2013-03-10 11:52:00,
2013-03-10 07:58:00,25.0,23.2,30.34,NNW,346,0.8,1.3,92,0.00,n/a,n/a,-99.99,Henriksen +1-Wire,2013-03-10 11:58:00,
2013-03-10 08:04:00,24.9,23.1,30.34,North,354,0.5,1.3,92,0.00,n/a,n/a,-99.99,Henriksen +1-Wire,2013-03-10 12:04:00,
2013-03-10 08:10:00,25.1,23.2,30.34,North,359,0.0,1.3,92,0.00,n/a,n/a,-99.99,Henriksen +1-Wire,2013-03-10 12:10:00,
2013-03-10 08:16:00,24.9,23.1,30.34,NNW,343,0.2,0.6,92,0.00,n/a,n/a,-99.99,Henriksen +1-Wire,2013-03-10 12:16:00,
2013-03-10 08:22:00,26.5,24.6,30.34,NNW,330,0.6,1.0,92,0.00,n/a,n/a,-99.99,Henriksen +1-Wire,2013-03-10 12:22:00,
2013-03-10 08:28:00,26.6,24.8,30.35,NNW,328,1.1,1.7,92,0.00,n/a,n/a,-99.99,Henriksen +1-Wire,2013-03-10 12:28:00,
2013-03-10 08:34:00,28.5,26.6,30.34,NNW,335,1.5,1.9,92,0.00,n/a,n/a,-99.99,Henriksen +1-Wire,2013-03-10 12:34:00,
2013-03-10 08:40:00,29.1,27.2,30.35,NNW,339,0.2,1.9,92,0.00,n/a,n/a,-99.99,Henriksen +1-Wire,2013-03-10 12:40:00,
2013-03-10 08:46:00,29.3,27.4,30.35,NW,325,0.7,2.3,92,0.00,n/a,n/a,-99.99,Henriksen +1-Wire,2013-03-10 12:46:00,
2013-03-10 08:52:00,29.5,27.5,30.34,NNW,329,1.3,1.9,92,0.00,n/a,n/a,-99.99,Henriksen +1-Wire,2013-03-10 12:52:00,
2013-03-10 08:58:00,28.7,26.7,30.34,NNW,332,0.7,1.9,92,0.00,n/a,n/a,-99.99,Henriksen +1-Wire,2013-03-10 12:58:00,
2013-03-10 09:04:00,29.4,27.4,30.34,NNW,333,0.0,1.3,92,0.00,n/a,n/a,-99.99,Henriksen +1-Wire,2013-03-10 13:04:00,
2013-03-10 09:10:00,28.7,26.7,30.34,NW,326,0.7,1.3,92,0.00,n/a,n/a,-99.99,Henriksen +1-Wire,2013-03-10 13:10:00,
2013-03-10 09:16:00,28.6,26.6,30.35,NNW,333,0.0,1.3,92,0.00,n/a,n/a,-99.99,Henriksen +1-Wire,2013-03-10 13:16:00,
2013-03-10 09:22:00,30.2,28.2,30.35,West,269,0.6,2.3,92,0.00,n/a,n/a,-99.99,Henriksen +1-Wire,2013-03-10 13:22:00,
2013-03-10 09:28:00,30.3,28.3,30.35,WNW,293,0.8,2.9,92,0.00,n/a,n/a,-99.99,Henriksen +1-Wire,2013-03-10 13:28:00,
2013-03-10 09:34:00,30.3,28.1,30.35,NNW,337,1.4,2.9,91,0.00,n/a,n/a,-99.99,Henriksen +1-Wire,2013-03-10 13:34:00,
2013-03-10 09:40:00,31.9,29.6,30.35,NNW,327,2.0,3.2,90,0.00,n/a,n/a,-99.99,Henriksen +1-Wire,2013-03-10 13:40:00,
2013-03-10 09:46:00,32.8,30.3,30.35,NW,325,0.9,3.6,90,0.00,n/a,n/a,-99.99,Henriksen +1-Wire,2013-03-10 13:46:00,
2013-03-10 09:52:00,32.2,29.4,30.35,NW,315,1.4,3.8,89,0.01,n/a,n/a,-99.99,Henriksen +1-Wire,2013-03-10 13:52:00,
2013-03-10 09:58:00,32.2,29.2,30.35,NW,324,1.8,4.1,88,0.01,n/a,n/a,-99.99,Henriksen +1-Wire,2013-03-10 13:58:00,
2013-03-10 10:04:00,32.6,29.1,30.35,WNW,295,1.7,4.1,86,0.01,n/a,n/a,-99.99,Henriksen +1-Wire,2013-03-10 14:04:00,
2013-03-10 10:10:00,33.0,29.2,30.35,NW,307,1.9,3.8,85,0.01,n/a,n/a,-99.99,Henriksen +1-Wire,2013-03-10 14:10:00,
2013-03-10 10:16:00,33.7,29.5,30.35,NW,309,1.9,3.8,84,0.01,n/a,n/a,-99.99,Henriksen +1-Wire,2013-03-10 14:16:00,
2013-03-10 10:22:00,34.4,29.7,30.35,NW,316,1.9,3.2,82,0.01,n/a,n/a,-99.99,Henriksen +1-Wire,2013-03-10 14:22:00,
2013-03-10 10:28:00,34.8,29.6,30.35,NW,326,1.4,3.8,80,0.01,n/a,n/a,-99.99,Henriksen +1-Wire,2013-03-10 14:28:00,
2013-03-10 10:34:00,35.5,29.8,30.35,NNW,328,1.0,3.8,79,0.01,n/a,n/a,-99.99,Henriksen +1-Wire,2013-03-10 14:34:00,
2013-03-10 10:40:00,35.8,29.6,30.35,NW,320,1.6,2.9,78,0.01,n/a,n/a,-99.99,Henriksen +1-Wire,2013-03-10 14:40:00,
2013-03-10 10:46:00,36.1,29.5,30.35,NNW,330,2.6,4.4,76,0.01,n/a,n/a,-99.99,Henriksen +1-Wire,2013-03-10 14:46:00,
2013-03-10 10:52:00,36.5,29.5,30.35,NNW,330,2.1,4.4,75,0.00,n/a,n/a,-99.99,Henriksen +1-Wire,2013-03-10 14:52:00,
2013-03-10 10:58:00,36.9,29.4,30.35,NW,305,1.6,3.7,74,0.00,n/a,n/a,-99.99,Henriksen +1-Wire,2013-03-10 14:58:00,
2013-03-10 11:04:00,37.7,29.9,30.35,NW,324,1.9,4.2,73,0.00,n/a,n/a,-99.99,Henriksen +1-Wire,2013-03-10 15:04:00,
2013-03-10 11:10:00,37.3,29.3,30.35,NW,323,3.8,6.1,72,0.00,n/a,n/a,-99.99,Henriksen +1-Wire,2013-03-10 15:10:00,
2013-03-10 11:16:00,36.8,29.2,30.35,NW,323,2.5,6.1,73,0.00,n/a,n/a,-99.99,Henriksen +1-Wire,2013-03-10 15:16:00,
2013-03-10 11:22:00,37.0,29.2,30.34,WNW,300,0.9,4.3,73,0.00,n/a,n/a,-99.99,Henriksen +1-Wire,2013-03-10 15:22:00,
2013-03-10 11:28:00,37.3,29.5,30.33,WNW,298,1.5,4.2,73,0.00,n/a,n/a,-99.99,Henriksen +1-Wire,2013-03-10 15:28:00,
2013-03-10 11:34:00,37.8,29.6,30.34,NW,315,2.0,4.4,72,0.00,n/a,n/a,-99.99,Henriksen +1-Wire,2013-03-10 15:34:00,
2013-03-10 11:40:00,37.8,29.2,30.34,NW,313,1.3,4.4,70,0.00,n/a,n/a,-99.99,Henriksen +1-Wire,2013-03-10 15:40:00,
2013-03-10 11:46:00,37.6,29.2,30.34,NW,309,1.2,4.2,71,0.00,n/a,n/a,-99.99,Henriksen +1-Wire,2013-03-10 15:46:00,
2013-03-10 11:52:00,38.0,29.5,30.34,NW,319,3.1,4.8,71,0.00,n/a,n/a,-99.99,Henriksen +1-Wire,2013-03-10 15:52:00,
2013-03-10 11:58:00,39.1,29.8,30.33,NW,324,1.1,4.8,69,0.00,n/a,n/a,-99.99,Henriksen +1-Wire,2013-03-10 15:58:00,
2013-03-10 17:26:00,40.7,29.2,30.27,ENE,76,4.2,7.7,63,0.00,n/a,n/a,-99.99,Henriksen +1-Wire,2013-03-10 21:26:00,
2013-03-10 17:32:00,41.7,26.8,30.28,East,93,5.1,7.7,55,0.00,n/a,n/a,-99.99,Henriksen +1-Wire,2013-03-10 21:32:00,
2013-03-10 17:38:00,41.3,30.1,30.27,East,97,5.1,8.3,64,0.00,n/a,n/a,-99.99,Henriksen +1-Wire,2013-03-10 21:38:00,
2013-03-10 17:44:00,41.3,30.6,30.27,ESE,103,4.0,7.1,65,0.00,n/a,n/a,-99.99,Henriksen +1-Wire,2013-03-10 21:44:00,
2013-03-10 17:50:00,41.2,30.7,30.28,East,94,4.8,6.9,65,0.00,n/a,n/a,-99.99,Henriksen +1-Wire,2013-03-10 21:50:00,
2013-03-10 17:56:00,40.9,30.6,30.27,ENE,77,3.8,9.2,66,0.00,n/a,n/a,-99.99,Henriksen +1-Wire,2013-03-10 21:56:00,
2013-03-10 18:02:00,40.2,30.4,30.27,East,84,3.2,7.6,67,0.00,n/a,n/a,-99.99,Henriksen +1-Wire,2013-03-10 22:02:00,
2013-03-10 18:08:00,39.9,30.4,30.26,East,83,3.8,7.5,68,0.00,n/a,n/a,-99.99,Henriksen +1-Wire,2013-03-10 22:08:00,
2013-03-10 18:14:00,39.3,30.1,30.27,East,82,5.0,8.1,69,0.00,n/a,n/a,-99.99,Henriksen +1-Wire,2013-03-10 22:14:00,
2013-03-10 18:20:00,39.0,30.0,30.27,East,86,4.4,8.1,69,0.00,n/a,n/a,-99.99,Henriksen +1-Wire,2013-03-10 22:20:00,
2013-03-10 18:26:00,38.7,29.9,30.27,East,93,5.0,7.8,70,0.00,n/a,n/a,-99.99,Henriksen +1-Wire,2013-03-10 22:26:00,
2013-03-10 18:32:00,38.3,29.8,30.27,ENE,78,4.1,7.8,71,0.00,n/a,n/a,-99.99,Henriksen +1-Wire,2013-03-10 22:32:00,
2013-03-10 18:38:00,38.0,29.9,30.27,East,89,4.6,7.2,72,0.00,n/a,n/a,-99.99,Henriksen +1-Wire,2013-03-10 22:38:00,
2013-03-10 18:44:00,37.8,29.9,30.27,ENE,75,4.8,7.2,72,0.00,n/a,n/a,-99.99,Henriksen +1-Wire,2013-03-10 22:44:00,
2013-03-10 18:50:00,37.4,29.9,30.28,ENE,78,4.9,8.4,74,0.00,n/a,n/a,-99.99,Henriksen +1-Wire,2013-03-10 22:50:00,
2013-03-10 18:56:00,37.1,29.8,30.27,ENE,75,3.4,8.4,74,0.00,n/a,n/a,-99.99,Henriksen +1-Wire,2013-03-10 22:56:00,
2013-03-10 19:02:00,36.8,29.8,30.28,ENE,70,4.6,6.5,75,0.00,n/a,n/a,-99.99,Henriksen +1-Wire,2013-03-10 23:02:00,
2013-03-10 19:08:00,36.5,29.7,30.28,ENE,77,4.1,6.5,75,0.00,n/a,n/a,-99.99,Henriksen +1-Wire,2013-03-10 23:08:00,
2013-03-10 19:14:00,36.4,29.7,30.27,East,82,4.1,6.8,76,0.00,n/a,n/a,-99.99,Henriksen +1-Wire,2013-03-10 23:14:00,
2013-03-10 19:20:00,36.3,29.7,30.28,East,80,4.3,7.7,76,0.00,n/a,n/a,-99.99,Henriksen +1-Wire,2013-03-10 23:20:00,
2013-03-10 19:26:00,36.0,29.5,30.27,East,82,5.4,7.7,77,0.00,n/a,n/a,-99.99,Henriksen +1-Wire,2013-03-10 23:26:00,
2013-03-10 19:32:00,35.8,29.5,30.27,East,92,4.5,6.7,77,0.00,n/a,n/a,-99.99,Henriksen +1-Wire,2013-03-10 23:32:00,
2013-03-10 19:38:00,35.7,29.5,30.28,East,81,4.7,8.1,77,0.00,n/a,n/a,-99.99,Henriksen +1-Wire,2013-03-10 23:38:00,
2013-03-10 19:44:00,35.6,29.5,30.28,East,86,4.5,8.1,78,0.00,n/a,n/a,-99.99,Henriksen +1-Wire,2013-03-10 23:44:00,
2013-03-10 19:50:00,35.6,29.5,30.28,East,82,3.0,6.8,78,0.00,n/a,n/a,-99.99,Henriksen +1-Wire,2013-03-10 23:50:00,
2013-03-10 19:56:00,35.5,29.5,30.28,East,88,3.7,6.7,78,0.00,n/a,n/a,-99.99,Henriksen +1-Wire,2013-03-10 23:56:00,
2013-03-10 20:02:00,35.4,29.7,30.27,ENE,78,3.4,6.7,79,0.00,n/a,n/a,-99.99,Henriksen +1-Wire,2013-03-11 00:02:00,
2013-03-10 20:08:00,35.3,29.6,30.27,East,82,2.5,6.1,79,0.00,n/a,n/a,-99.99,Henriksen +1-Wire,2013-03-11 00:08:00,
2013-03-10 20:14:00,35.1,29.5,30.28,East,80,3.0,6.1,79,0.00,n/a,n/a,-99.99,Henriksen +1-Wire,2013-03-11 00:14:00,
2013-03-10 20:20:00,35.1,29.6,30.28,East,79,3.6,4.8,80,0.00,n/a,n/a,-99.99,Henriksen +1-Wire,2013-03-11 00:20:00,
2013-03-10 20:26:00,34.8,29.4,30.28,ENE,75,2.1,4.8,80,0.00,n/a,n/a,-99.99,Henriksen +1-Wire,2013-03-11 00:26:00,
2013-03-10 20:32:00,34.8,29.5,30.28,East,79,2.9,4.5,80,0.00,n/a,n/a,-99.99,Henriksen +1-Wire,2013-03-11 00:32:00,
2013-03-10 20:38:00,34.8,29.4,30.28,ENE,76,1.5,4.5,80,0.00,n/a,n/a,-99.99,Henriksen +1-Wire,2013-03-11 00:38:00,
2013-03-10 20:44:00,34.8,29.5,30.28,East,91,1.5,2.9,80,0.00,n/a,n/a,-99.99,Henriksen +1-Wire,2013-03-11 00:44:00,
2013-03-10 20:50:00,34.8,29.6,30.27,East,90,2.0,4.4,81,0.00,n/a,n/a,-99.99,Henriksen +1-Wire,2013-03-11 00:50:00,
2013-03-10 20:56:00,34.7,29.6,30.27,East,92,3.1,5.2,81,0.00,n/a,n/a,-99.99,Henriksen +1-Wire,2013-03-11 00:56:00,
2013-03-10 21:02:00,34.7,29.6,30.28,East,81,3.1,5.2,81,0.00,n/a,n/a,-99.99,Henriksen +1-Wire,2013-03-11 01:02:00,
2013-03-10 21:08:00,34.8,29.7,30.27,East,89,2.8,5.0,81,0.00,n/a,n/a,-99.99,Henriksen +1-Wire,2013-03-11 01:08:00,
2013-03-10 21:14:00,34.8,29.9,30.27,East,98,2.8,5.8,82,0.00,n/a,n/a,-99.99,Henriksen +1-Wire,2013-03-11 01:14:00,
2013-03-10 21:20:00,34.8,29.9,30.26,East,89,3.2,5.6,82,0.00,n/a,n/a,-99.99,Henriksen +1-Wire,2013-03-11 01:20:00,
2013-03-10 21:26:00,34.8,29.9,30.26,East,92,3.1,5.8,82,0.00,n/a,n/a,-99.99,Henriksen +1-Wire,2013-03-11 01:26:00,
2013-03-10 21:32:00,34.8,30.0,30.26,ESE,110,3.1,6.8,82,0.00,n/a,n/a,-99.99,Henriksen +1-Wire,2013-03-11 01:32:00,
2013-03-10 21:38:00,34.8,30.0,30.26,East,97,4.2,6.8,82,0.00,n/a,n/a,-99.99,Henriksen +1-Wire,2013-03-11 01:38:00,
2013-03-10 21:44:00,34.8,30.1,30.26,East,83,4.8,7.4,82,0.00,n/a,n/a,-99.99,Henriksen +1-Wire,2013-03-11 01:44:00,
2013-03-10 21:50:00,34.9,30.2,30.26,East,85,4.3,7.4,82,0.00,n/a,n/a,-99.99,Henriksen +1-Wire,2013-03-11 01:50:00,
2013-03-10 21:56:00,34.9,30.2,30.26,East,98,2.4,8.2,82,0.00,n/a,n/a,-99.99,Henriksen +1-Wire,2013-03-11 01:56:00,
2013-03-10 22:02:00,34.9,30.2,30.27,SE,136,1.4,4.4,82,0.00,n/a,n/a,-99.99,Henriksen +1-Wire,2013-03-11 02:02:00,
2013-03-10 22:08:00,34.8,30.2,30.26,SSE,163,1.7,3.9,83,0.00,n/a,n/a,-99.99,Henriksen +1-Wire,2013-03-11 02:08:00,
2013-03-10 22:14:00,34.7,30.2,30.26,ESE,117,3.3,5.5,83,0.00,n/a,n/a,-99.99,Henriksen +1-Wire,2013-03-11 02:14:00,
2013-03-10 22:20:00,34.7,30.1,30.25,ESE,102,5.2,7.4,83,0.00,n/a,n/a,-99.99,Henriksen +1-Wire,2013-03-11 02:20:00,
2013-03-10 22:26:00,34.8,30.2,30.25,East,88,5.3,8.7,82,0.00,n/a,n/a,-99.99,Henriksen +1-Wire,2013-03-11 02:26:00,
2013-03-10 22:32:00,34.9,30.2,30.25,ESE,103,4.6,7.7,82,0.00,n/a,n/a,-99.99,Henriksen +1-Wire,2013-03-11 02:32:00,
2013-03-10 22:38:00,34.8,30.2,30.24,ESE,104,3.2,7.7,82,0.00,n/a,n/a,-99.99,Henriksen +1-Wire,2013-03-11 02:38:00,
2013-03-10 22:44:00,34.9,30.3,30.24,East,92,3.9,7.8,82,0.00,n/a,n/a,-99.99,Henriksen +1-Wire,2013-03-11 02:44:00,
2013-03-10 22:50:00,35.0,30.3,30.25,ESE,106,2.8,7.1,82,0.00,n/a,n/a,-99.99,Henriksen +1-Wire,2013-03-11 02:50:00,
2013-03-10 22:56:00,35.0,30.3,30.26,SSE,151,3.4,5.4,82,0.00,n/a,n/a,-99.99,Henriksen +1-Wire,2013-03-11 02:56:00,
2013-03-10 23:02:00,35.0,30.3,30.26,ESE,118,2.4,5.4,82,0.00,n/a,n/a,-99.99,Henriksen +1-Wire,2013-03-11 03:02:00,
2013-03-10 23:08:00,35.0,30.2,30.27,SSE,151,2.2,3.5,82,0.00,n/a,n/a,-99.99,Henriksen +1-Wire,2013-03-11 03:08:00,
2013-03-10 23:14:00,34.9,30.3,30.26,SSE,150,1.5,4.5,82,0.00,n/a,n/a,-99.99,Henriksen +1-Wire,2013-03-11 03:14:00,
2013-03-10 23:20:00,35.0,30.3,30.27,SSE,151,1.0,2.8,82,0.00,n/a,n/a,-99.99,Henriksen +1-Wire,2013-03-11 03:20:00,
2013-03-10 23:26:00,35.0,30.2,30.26,SE,145,1.6,2.6,82,0.00,n/a,n/a,-99.99,Henriksen +1-Wire,2013-03-11 03:26:00,
2013-03-10 23:32:00,34.9,30.2,30.26,ENE,75,2.0,2.6,82,0.00,n/a,n/a,-99.99,Henriksen +1-Wire,2013-03-11 03:32:00,
2013-03-10 23:38:00,35.0,30.3,30.26,East,81,3.0,4.8,82,0.00,n/a,n/a,-99.99,Henriksen +1-Wire,2013-03-11 03:38:00,
2013-03-10 23:44:00,35.0,30.3,30.25,East,83,3.4,6.1,82,0.00,n/a,n/a,-99.99,Henriksen +1-Wire,2013-03-11 03:44:00,
2013-03-10 23:50:00,35.1,30.3,30.26,East,93,3.8,5.8,82,0.00,n/a,n/a,-99.99,Henriksen +1-Wire,2013-03-11 03:50:00,
2013-03-10 23:56:00,35.0,30.2,30.25,ESE,102,3.0,5.8,82,0.00,n/a,n/a,-99.99,Henriksen +1-Wire,2013-03-11 03:56:00,